Ekaterino-Nikol'Skoe, Russia
Current Conditions -  °F | °C
As of 9:30 AM on Wednesday 22 Oct 2014 (Local Time) from UHHH Reporting Station
Clear Clear  
Wind Chill: 22°   Ceiling: Unl
Heat Index: 34°   Visibility: 6mi
Dew Point:   Wind: 20mph
Humidity: 32%   Direction: 250°WSW
Pressure: 30.09"   Gusts: 27mph
Location:  47.73°N, 130.97°E
Report Text: UHHH 220130Z 25009G12MPS CAVOK 01/M14 Q1019 NOSIG RMKQFE758/1011 23090060
Loading
Personal Weather Stations






























Interactive Weather Map
Tropical Storm Tracking
New forecast layout! Learn more

10-Day Weather Forecast

Advertisements
Track Severe Weather on mobile